createdAt,value
2018-06-10T00:01:45.949Z,20.70
2018-06-10T00:04:14.873Z,20.70
2018-06-10T00:06:43.829Z,20.60
2018-06-10T00:09:13.253Z,20.60
2018-06-10T00:11:42.231Z,20.60
2018-06-10T00:14:11.173Z,20.60
2018-06-10T00:16:40.154Z,20.60
2018-06-10T00:19:09.131Z,20.50
2018-06-10T00:21:38.105Z,20.50
2018-06-10T00:24:07.036Z,20.50
2018-06-10T00:26:35.945Z,20.40
2018-06-10T00:29:10.221Z,20.50
2018-06-10T00:31:39.148Z,20.50
2018-06-10T00:34:08.122Z,20.50
2018-06-10T00:36:37.105Z,20.50
2018-06-10T00:39:07.409Z,20.50
2018-06-10T00:41:36.945Z,20.40
2018-06-10T00:44:06.011Z,20.30
2018-06-10T00:46:34.953Z,20.30
2018-06-10T00:49:03.921Z,20.20
2018-06-10T00:51:32.862Z,20.10
2018-06-10T00:54:01.848Z,20.10
2018-06-10T00:56:42.240Z,20.10
2018-06-10T00:59:11.164Z,20.10
2018-06-10T01:01:40.398Z,20.10
2018-06-10T01:06:37.975Z,20.10
2018-06-10T01:11:37.114Z,20.00
2018-06-10T01:14:06.148Z,20.00
2018-06-10T01:16:35.226Z,20.00
2018-06-10T01:19:04.177Z,20.10
2018-06-10T01:21:33.112Z,20.00
2018-06-10T01:24:02.046Z,20.00
2018-06-10T01:26:36.438Z,20.00
2018-06-10T01:29:05.485Z,20.00
2018-06-10T01:31:34.774Z,20.00
2018-06-10T01:34:03.725Z,20.00
2018-06-10T01:36:32.741Z,20.00
2018-06-10T01:39:01.693Z,20.00
2018-06-10T01:41:30.646Z,20.00
2018-06-10T01:43:59.607Z,20.00
2018-06-10T01:46:28.529Z,20.00
2018-06-10T01:48:57.464Z,19.90
2018-06-10T01:51:26.418Z,19.90
2018-06-10T01:53:55.384Z,19.90
2018-06-10T01:56:24.375Z,19.90
2018-06-10T01:58:53.321Z,19.90
2018-06-10T02:01:22.277Z,19.90
2018-06-10T02:03:51.224Z,19.90
2018-06-10T02:06:20.171Z,20.00
2018-06-10T02:08:49.102Z,20.00
2018-06-10T02:13:46.674Z,19.90
2018-06-10T02:16:15.613Z,19.80
2018-06-10T02:18:44.558Z,19.80
2018-06-10T02:21:13.497Z,19.80
2018-06-10T02:23:42.414Z,19.80
2018-06-10T02:26:11.358Z,19.80
2018-06-10T02:28:40.310Z,19.80
2018-06-10T02:31:09.287Z,19.70
2018-06-10T02:33:38.198Z,19.60
2018-06-10T02:38:35.874Z,19.60
2018-06-10T02:41:04.785Z,19.50
2018-06-10T02:43:33.762Z,19.50
2018-06-10T02:46:02.699Z,19.40
2018-06-10T02:48:31.639Z,19.40
2018-06-10T02:51:00.610Z,19.40
2018-06-10T02:53:29.991Z,19.40
2018-06-10T02:55:58.925Z,19.40
2018-06-10T02:58:28.234Z,19.20
2018-06-10T03:00:57.722Z,19.20
2018-06-10T03:03:26.626Z,19.10
2018-06-10T03:05:55.590Z,19.10
2018-06-10T03:08:24.525Z,19.10
2018-06-10T03:10:53.489Z,19.10
2018-06-10T03:13:22.405Z,19.20
2018-06-10T03:15:51.342Z,19.20
2018-06-10T03:18:20.281Z,19.10
2018-06-10T03:20:49.600Z,19.00
2018-06-10T03:23:18.834Z,18.90
2018-06-10T03:25:47.849Z,18.90
2018-06-10T03:28:16.767Z,18.80
2018-06-10T03:30:45.725Z,18.70
2018-06-10T03:35:43.302Z,18.70
2018-06-10T03:43:09.445Z,18.60
2018-06-10T03:45:38.381Z,18.50
2018-06-10T03:48:07.306Z,18.50
2018-06-10T03:53:05.886Z,18.40
2018-06-10T03:55:34.825Z,18.40
2018-06-10T03:58:03.753Z,18.30
2018-06-10T04:00:32.731Z,18.30
2018-06-10T04:03:01.742Z,18.30
2018-06-10T04:05:30.725Z,18.30
2018-06-10T04:07:59.765Z,18.20
2018-06-10T04:10:28.727Z,18.20
2018-06-10T04:12:57.630Z,18.10
2018-06-10T04:15:26.579Z,18.10
2018-06-10T04:17:55.522Z,18.10
2018-06-10T04:20:24.470Z,18.00
2018-06-10T04:22:53.398Z,18.00
2018-06-10T04:27:50.998Z,17.90
2018-06-10T04:30:19.980Z,17.90
2018-06-10T04:32:48.936Z,17.90
2018-06-10T04:35:17.934Z,17.90
2018-06-10T04:37:46.885Z,17.90
2018-06-10T04:40:15.814Z,17.80
2018-06-10T04:42:44.754Z,17.80
2018-06-10T04:45:13.676Z,17.80
2018-06-10T04:47:42.607Z,17.80
2018-06-10T04:50:11.527Z,17.80
2018-06-10T04:52:40.449Z,17.80
2018-06-10T04:55:09.397Z,17.80
2018-06-10T04:57:38.349Z,17.90
2018-06-10T05:00:07.441Z,17.90
2018-06-10T05:02:36.373Z,17.90
2018-06-10T05:05:05.891Z,18.00
2018-06-10T05:07:34.809Z,18.00
2018-06-10T05:10:03.769Z,18.10
2018-06-10T05:12:32.728Z,18.20
2018-06-10T05:15:01.689Z,18.20
2018-06-10T05:17:30.605Z,18.30
2018-06-10T05:19:59.580Z,18.40
2018-06-10T05:22:28.492Z,18.40
2018-06-10T05:24:57.422Z,18.60
2018-06-10T05:27:26.379Z,18.70
2018-06-10T05:29:55.301Z,18.80
2018-06-10T05:32:24.532Z,18.90
2018-06-10T05:34:53.465Z,18.90
2018-06-10T05:37:22.377Z,19.10
2018-06-10T05:39:51.325Z,19.10
2018-06-10T05:42:20.267Z,19.20
2018-06-10T05:44:49.181Z,19.30
2018-06-10T05:47:18.342Z,19.40
2018-06-10T05:49:47.336Z,19.50
2018-06-10T05:52:16.289Z,19.50
2018-06-10T05:54:45.243Z,19.70
2018-06-10T05:57:14.146Z,19.60
2018-06-10T05:59:43.525Z,19.70
2018-06-10T06:02:12.551Z,19.80
2018-06-10T06:04:41.508Z,19.90
2018-06-10T06:07:10.490Z,20.00
2018-06-10T06:09:39.396Z,20.00
2018-06-10T06:12:08.366Z,20.00
2018-06-10T06:14:37.309Z,20.10
2018-06-10T06:19:34.893Z,20.20
2018-06-10T06:22:03.838Z,20.20
2018-06-10T06:24:32.773Z,20.10
2018-06-10T06:27:01.754Z,20.20
2018-06-10T06:29:30.766Z,20.20
2018-06-10T06:31:59.664Z,20.20
2018-06-10T06:34:28.693Z,20.30
2018-06-10T06:36:57.637Z,20.20
2018-06-10T06:39:26.604Z,20.20
2018-06-10T06:41:55.542Z,20.30
2018-06-10T06:49:21.661Z,20.20
2018-06-10T06:51:50.589Z,20.20
2018-06-10T06:54:19.634Z,20.10
2018-06-10T06:56:48.735Z,20.00
2018-06-10T06:59:17.728Z,19.90
2018-06-10T07:01:46.757Z,19.90
2018-06-10T07:04:15.794Z,19.80
2018-06-10T07:06:44.753Z,19.80
2018-06-10T07:09:13.725Z,19.80
2018-06-10T07:11:42.810Z,19.80
2018-06-10T07:14:11.929Z,19.80
2018-06-10T07:16:40.948Z,19.80
2018-06-10T07:19:09.886Z,19.90
2018-06-10T07:21:39.349Z,19.90
2018-06-10T07:24:08.303Z,19.90
2018-06-10T07:26:37.253Z,20.00
2018-06-10T07:29:06.184Z,20.20
2018-06-10T07:31:35.242Z,20.40
2018-06-10T07:36:33.895Z,20.90
2018-06-10T07:39:06.457Z,21.20
2018-06-10T07:41:35.938Z,21.60
2018-06-10T07:44:04.849Z,22.00
2018-06-10T07:46:33.832Z,22.20
2018-06-10T07:49:02.781Z,22.20
2018-06-10T07:51:31.737Z,22.30
2018-06-10T07:54:00.810Z,22.50
2018-06-10T07:56:29.732Z,22.70
2018-06-10T07:58:58.662Z,23.00
2018-06-10T08:01:27.601Z,23.20
2018-06-10T08:03:56.573Z,23.60
2018-06-10T08:06:25.572Z,23.70
2018-06-10T08:08:54.533Z,23.70
2018-06-10T08:11:23.617Z,23.60
2018-06-10T08:13:52.996Z,23.70
2018-06-10T08:16:22.006Z,23.50
2018-06-10T08:21:19.587Z,23.80
2018-06-10T08:23:48.533Z,23.80
2018-06-10T08:26:17.503Z,23.70
2018-06-10T08:28:46.436Z,23.60
2018-06-10T08:31:15.391Z,23.60
2018-06-10T08:33:44.366Z,23.70
2018-06-10T08:36:13.285Z,23.70
2018-06-10T08:41:10.843Z,24.00
2018-06-10T08:43:39.761Z,24.10
2018-06-10T08:46:08.733Z,24.20
2018-06-10T08:48:37.689Z,24.20
2018-06-10T08:51:06.789Z,24.30
2018-06-10T08:53:35.738Z,24.50
2018-06-10T08:56:04.665Z,24.50
2018-06-10T08:58:33.590Z,24.40
2018-06-10T09:01:02.514Z,24.30
2018-06-10T09:03:31.477Z,24.20
2018-06-10T09:06:00.466Z,23.90
2018-06-10T09:08:29.508Z,23.80
2018-06-10T09:10:58.431Z,23.80
2018-06-10T09:13:27.408Z,23.80
2018-06-10T09:15:56.375Z,23.90
2018-06-10T09:18:25.357Z,24.00
2018-06-10T09:20:54.281Z,24.20
2018-06-10T09:23:23.246Z,24.50
2018-06-10T09:25:52.326Z,24.80
2018-06-10T09:28:21.276Z,25.00
2018-06-10T09:30:50.226Z,25.20
2018-06-10T09:33:19.221Z,25.30
2018-06-10T09:35:48.147Z,25.30
2018-06-10T09:38:17.120Z,25.50
2018-06-10T09:40:46.055Z,25.50
2018-06-10T09:43:16.033Z,25.60
2018-06-10T09:45:45.046Z,25.70
2018-06-10T09:48:13.978Z,25.70
2018-06-10T09:50:42.921Z,25.60
2018-06-10T09:53:11.885Z,25.70
2018-06-10T09:55:40.985Z,25.90
2018-06-10T10:00:38.629Z,26.00
2018-06-10T10:03:07.573Z,26.10
2018-06-10T10:05:36.529Z,26.50
2018-06-10T10:08:05.471Z,26.50
2018-06-10T10:10:35.165Z,26.80
2018-06-10T10:13:04.104Z,27.10
2018-06-10T10:15:33.053Z,27.60
2018-06-10T10:18:01.985Z,27.60
2018-06-10T10:20:30.904Z,27.70
2018-06-10T10:22:59.823Z,27.80
2018-06-10T10:25:28.768Z,27.50
2018-06-10T10:27:57.689Z,27.80
2018-06-10T10:30:26.601Z,28.20
2018-06-10T10:35:25.629Z,27.90
2018-06-10T10:37:54.565Z,27.70
2018-06-10T10:40:23.510Z,27.50
2018-06-10T10:42:52.471Z,27.10
2018-06-10T10:45:21.402Z,26.80
2018-06-10T10:47:50.380Z,26.70
2018-06-10T10:50:19.296Z,26.50
2018-06-10T10:52:48.230Z,26.70
2018-06-10T10:55:17.165Z,26.90
2018-06-10T10:57:46.076Z,27.20
2018-06-10T11:00:15.083Z,27.40
2018-06-10T11:02:44.071Z,27.60
2018-06-10T11:05:13.088Z,28.00
2018-06-10T11:07:42.019Z,28.10
2018-06-10T11:10:10.958Z,28.20
2018-06-10T11:12:39.882Z,28.30
2018-06-10T11:15:08.856Z,28.50
2018-06-10T11:17:37.931Z,28.50
2018-06-10T11:20:06.852Z,28.70
2018-06-10T11:22:35.793Z,28.70
2018-06-10T11:25:05.354Z,28.50
2018-06-10T11:27:34.285Z,28.80
2018-06-10T11:30:03.221Z,29.10
2018-06-10T11:32:32.306Z,29.20
2018-06-10T11:35:01.279Z,28.80
2018-06-10T11:37:30.214Z,28.40
2018-06-10T11:39:59.147Z,28.10
2018-06-10T11:42:28.150Z,28.00
2018-06-10T11:44:57.005Z,28.40
2018-06-10T11:47:25.931Z,28.60
2018-06-10T11:49:54.861Z,28.80
2018-06-10T11:52:23.778Z,28.60
2018-06-10T11:54:52.724Z,28.50
2018-06-10T11:57:21.717Z,28.40
2018-06-10T11:59:50.670Z,28.80
2018-06-10T12:19:43.222Z,29.20
2018-06-10T12:22:12.338Z,29.20
2018-06-10T12:24:41.304Z,28.90
2018-06-10T12:27:10.233Z,28.60
2018-06-10T12:32:07.876Z,28.60
2018-06-10T12:34:36.874Z,29.00
2018-06-10T12:37:05.867Z,29.30
2018-06-10T12:39:34.810Z,29.50
2018-06-10T12:42:03.891Z,29.50
2018-06-10T12:44:33.829Z,29.70
2018-06-10T12:47:03.101Z,30.20
2018-06-10T12:49:32.174Z,30.40
2018-06-10T12:52:01.157Z,30.20
2018-06-10T12:54:30.267Z,30.10
2018-06-10T12:56:59.160Z,30.10
2018-06-10T13:01:56.874Z,30.30
2018-06-10T13:04:26.029Z,30.30
2018-06-10T13:06:55.204Z,30.40
2018-06-10T13:09:24.406Z,30.70
2018-06-10T13:11:55.528Z,30.80
2018-06-10T13:14:24.529Z,30.80
2018-06-10T13:16:53.520Z,30.40
2018-06-10T13:19:22.413Z,29.90
2018-06-10T13:21:51.502Z,29.40
2018-06-10T13:24:20.519Z,28.90
2018-06-10T13:26:49.485Z,28.70
2018-06-10T13:29:18.496Z,28.60
2018-06-10T13:31:47.851Z,29.00
2018-06-10T13:34:16.771Z,29.40
2018-06-10T13:39:14.366Z,29.90
2018-06-10T13:41:43.463Z,29.80
2018-06-10T13:44:12.523Z,29.30
2018-06-10T13:46:41.594Z,29.50
2018-06-10T13:49:10.637Z,29.70
2018-06-10T13:51:39.962Z,29.60
2018-06-10T13:54:08.995Z,29.70
2018-06-10T13:56:38.029Z,29.70
2018-06-10T13:59:07.052Z,29.60
2018-06-10T14:01:36.284Z,29.80
2018-06-10T14:06:34.022Z,29.60
2018-06-10T14:09:04.242Z,29.40
2018-06-10T14:11:33.232Z,29.20
2018-06-10T14:14:02.280Z,29.10
2018-06-10T14:16:31.285Z,29.10
2018-06-10T14:19:00.362Z,28.90
2018-06-10T14:21:29.364Z,29.10
2018-06-10T14:23:58.401Z,29.00
2018-06-10T14:26:27.568Z,28.80
2018-06-10T14:28:56.590Z,28.80
2018-06-10T14:31:26.582Z,28.60
2018-06-10T14:33:55.638Z,29.00
2018-06-10T14:36:24.670Z,29.40
2018-06-10T14:38:53.740Z,29.70
2018-06-10T14:41:22.767Z,29.40
2018-06-10T14:43:51.760Z,29.20
2018-06-10T14:46:21.009Z,28.90
2018-06-10T14:51:18.581Z,28.60
2018-06-10T14:56:16.086Z,28.70
2018-06-10T14:58:45.003Z,28.60
2018-06-10T15:01:13.922Z,28.50
2018-06-10T15:03:42.843Z,28.30
2018-06-10T15:06:11.822Z,28.40
2018-06-10T15:08:40.751Z,28.60
2018-06-10T15:11:09.649Z,28.70
2018-06-10T15:13:38.557Z,28.70
2018-06-10T15:16:07.538Z,28.80
2018-06-10T15:18:36.481Z,28.70
2018-06-10T15:21:05.469Z,28.40
2018-06-10T15:23:34.420Z,28.40
2018-06-10T15:26:03.658Z,28.40
2018-06-10T15:28:32.619Z,28.50
2018-06-10T15:31:01.545Z,28.30
2018-06-10T15:33:30.493Z,28.20
2018-06-10T15:35:59.432Z,28.20
2018-06-10T15:38:28.357Z,28.20
2018-06-10T15:40:57.279Z,28.30
2018-06-10T15:43:26.196Z,28.40
2018-06-10T15:45:55.106Z,28.30
2018-06-10T15:48:24.041Z,28.40
2018-06-10T15:50:52.983Z,28.40
2018-06-10T15:53:21.938Z,28.50
2018-06-10T15:58:19.483Z,28.50
2018-06-10T16:00:48.380Z,28.50
2018-06-10T16:03:17.313Z,28.50
2018-06-10T16:05:46.385Z,28.50
2018-06-10T16:08:15.327Z,28.30
2018-06-10T16:10:44.237Z,28.20
2018-06-10T16:13:13.210Z,28.10
2018-06-10T16:15:42.635Z,27.80
2018-06-10T16:18:11.562Z,27.80
2018-06-10T16:20:40.485Z,27.60
2018-06-10T16:23:09.412Z,27.50
2018-06-10T16:25:38.384Z,27.40
2018-06-10T16:28:07.343Z,27.30
2018-06-10T16:30:36.274Z,27.30
2018-06-10T16:33:05.261Z,27.50
2018-06-10T16:35:34.178Z,27.70
2018-06-10T16:38:03.182Z,27.80
2018-06-10T16:40:32.085Z,28.00
2018-06-10T16:43:01.122Z,28.00
2018-06-10T16:45:30.037Z,27.90
2018-06-10T16:47:58.937Z,27.90
2018-06-10T16:52:56.506Z,27.90
2018-06-10T16:55:25.467Z,27.90
2018-06-10T16:57:54.414Z,27.90
2018-06-10T17:00:23.499Z,27.90
2018-06-10T17:02:52.397Z,27.80
2018-06-10T17:05:21.394Z,27.70
2018-06-10T17:07:50.326Z,27.80
2018-06-10T17:10:19.260Z,27.80
2018-06-10T17:12:48.302Z,27.80
2018-06-10T17:15:17.226Z,27.80
2018-06-10T17:17:46.155Z,28.00
2018-06-10T17:20:15.467Z,27.90
2018-06-10T17:22:44.398Z,27.80
2018-06-10T17:25:13.369Z,27.40
2018-06-10T17:27:42.314Z,27.00
2018-06-10T17:30:11.265Z,27.00
2018-06-10T17:32:40.214Z,27.00
2018-06-10T17:35:09.509Z,27.00
2018-06-10T17:37:38.456Z,26.80
2018-06-10T17:40:07.576Z,26.60
2018-06-10T17:42:37.047Z,26.40
2018-06-10T17:45:06.000Z,26.50
2018-06-10T17:47:35.021Z,26.40
2018-06-10T17:50:04.003Z,26.30
2018-06-10T17:52:32.952Z,26.10
2018-06-10T17:55:01.914Z,26.00
2018-06-10T17:59:59.512Z,25.80
2018-06-10T18:02:28.672Z,25.70
2018-06-10T18:04:57.618Z,25.70
2018-06-10T18:07:26.535Z,25.80
2018-06-10T18:09:55.485Z,25.80
2018-06-10T18:12:24.387Z,25.90
2018-06-10T18:14:53.341Z,25.80
2018-06-10T18:17:22.411Z,25.70
2018-06-10T18:19:51.405Z,25.60
2018-06-10T18:22:20.422Z,25.50
2018-06-10T18:24:49.373Z,25.60
2018-06-10T18:27:18.362Z,25.60
2018-06-10T18:29:47.304Z,25.40
2018-06-10T18:32:16.218Z,25.20
2018-06-10T18:34:45.154Z,25.10
2018-06-10T18:37:14.103Z,24.90
2018-06-10T18:39:43.037Z,24.80
2018-06-10T18:42:11.965Z,24.80
2018-06-10T18:44:40.946Z,24.60
2018-06-10T18:47:09.881Z,24.50
2018-06-10T18:49:38.817Z,24.40
2018-06-10T18:52:07.766Z,24.20
2018-06-10T18:54:36.710Z,24.10
2018-06-10T18:57:05.700Z,24.00
2018-06-10T18:59:34.670Z,24.00
2018-06-10T19:04:32.220Z,23.90
2018-06-10T19:07:01.156Z,23.80
2018-06-10T19:09:30.145Z,23.70
2018-06-10T19:11:59.073Z,23.60
2018-06-10T19:14:28.009Z,23.50
2018-06-10T19:16:57.039Z,23.40
2018-06-10T19:19:26.019Z,23.40
2018-06-10T19:21:55.010Z,23.30
2018-06-10T19:24:24.006Z,23.10
2018-06-10T19:26:52.905Z,23.00
2018-06-10T19:29:21.933Z,22.90
2018-06-10T19:31:50.812Z,22.90
2018-06-10T19:34:19.770Z,22.80
2018-06-10T19:36:48.722Z,22.80
2018-06-10T19:39:17.909Z,22.80
2018-06-10T19:44:15.986Z,22.60
2018-06-10T19:46:44.949Z,22.40
2018-06-10T19:49:14.248Z,22.40
2018-06-10T19:51:43.399Z,22.20
2018-06-10T19:54:12.387Z,22.00
2018-06-10T19:56:41.302Z,22.00
2018-06-10T19:59:10.281Z,21.90
2018-06-10T20:01:40.090Z,21.80
2018-06-10T20:04:09.042Z,21.70
2018-06-10T20:09:07.582Z,21.50
2018-06-10T20:11:36.512Z,21.50
2018-06-10T20:14:05.522Z,21.40
2018-06-10T20:16:34.517Z,21.30
2018-06-10T20:19:03.572Z,21.20
2018-06-10T20:21:32.538Z,21.10
2018-06-10T20:24:01.479Z,21.00
2018-06-10T20:26:30.425Z,20.90
2018-06-10T20:28:59.366Z,20.90
2018-06-10T20:31:28.363Z,20.80
2018-06-10T20:33:58.089Z,20.80
2018-06-10T20:36:27.638Z,20.70
2018-06-10T20:38:56.603Z,20.50
2018-06-10T20:41:25.536Z,20.50
2018-06-10T20:43:54.690Z,20.50
2018-06-10T20:46:23.617Z,20.40
2018-06-10T20:48:52.534Z,20.40
2018-06-10T20:51:21.499Z,20.40
2018-06-10T20:53:50.393Z,20.30
2018-06-10T20:56:19.357Z,20.30
2018-06-10T20:58:48.912Z,20.10
2018-06-10T21:01:17.940Z,20.10
2018-06-10T21:03:46.806Z,20.00
2018-06-10T21:06:16.006Z,19.90
2018-06-10T21:08:45.903Z,19.90
2018-06-10T21:13:43.591Z,19.80
2018-06-10T21:16:12.678Z,19.70
2018-06-10T21:18:42.141Z,19.60
2018-06-10T21:21:11.121Z,19.50
2018-06-10T21:23:40.073Z,19.40
2018-06-10T21:26:09.057Z,19.40
2018-06-10T21:28:37.997Z,19.40
2018-06-10T21:31:07.002Z,19.20
2018-06-10T21:36:04.575Z,19.10
2018-06-10T21:38:33.517Z,19.00
2018-06-10T21:41:02.629Z,19.00
2018-06-10T21:43:31.560Z,18.90
2018-06-10T21:48:29.114Z,18.80
2018-06-10T21:50:58.060Z,18.70
2018-06-10T21:53:27.014Z,18.70
2018-06-10T21:55:55.921Z,18.60
2018-06-10T21:58:25.089Z,18.50
2018-06-10T22:00:56.361Z,18.50
2018-06-10T22:03:25.651Z,18.30
2018-06-10T22:05:54.626Z,18.20
2018-06-10T22:08:23.711Z,18.00
2018-06-10T22:10:52.786Z,17.90
2018-06-10T22:13:21.778Z,17.90
2018-06-10T22:15:50.817Z,17.90
2018-06-10T22:20:48.576Z,17.80
2018-06-10T22:23:17.494Z,17.70
2018-06-10T22:28:15.069Z,17.60
2018-06-10T22:30:44.060Z,17.60
2018-06-10T22:33:13.006Z,17.50
2018-06-10T22:35:41.960Z,17.40
2018-06-10T22:38:10.875Z,17.40
2018-06-10T22:40:39.884Z,17.40
2018-06-10T22:43:08.799Z,17.30
2018-06-10T22:45:37.717Z,17.20
2018-06-10T22:48:06.689Z,17.10
2018-06-10T22:50:35.615Z,17.20
2018-06-10T22:53:14.211Z,17.10
2018-06-10T22:55:43.191Z,17.10
2018-06-10T22:58:12.185Z,17.10
2018-06-10T23:03:09.755Z,17.00
2018-06-10T23:05:38.673Z,16.90
2018-06-10T23:08:07.682Z,16.90
2018-06-10T23:10:36.595Z,16.80
2018-06-10T23:13:05.863Z,16.80
2018-06-10T23:15:34.787Z,16.80
2018-06-10T23:18:03.721Z,16.70
2018-06-10T23:20:32.674Z,16.60
2018-06-10T23:23:01.600Z,16.60
2018-06-10T23:25:30.588Z,16.50
2018-06-10T23:27:59.536Z,16.40
2018-06-10T23:30:28.489Z,16.40
2018-06-10T23:32:57.551Z,16.40
2018-06-10T23:35:26.897Z,16.40
2018-06-10T23:37:55.994Z,16.40
2018-06-10T23:40:24.965Z,16.30
2018-06-10T23:42:53.913Z,16.20
2018-06-10T23:45:22.845Z,16.20
2018-06-10T23:47:51.777Z,16.10
2018-06-10T23:50:20.670Z,16.10
2018-06-10T23:52:49.621Z,16.00
2018-06-10T23:55:18.553Z,16.00
2018-06-10T23:57:47.945Z,16.00
